Time;durP1;ratioP1;P1;durP2;ratioP2;P2;SDS_P1;SDS_P2;PMS_P1;PMS_P2;Temp;Humidity;BMP_temperature;BMP_pressure;BME280_temperature;BME280_humidity;BME280_pressure;Samples;Min_cycle;Max_cycle;Signal;HPM_P1;HPM_P2
2021/03/21 00:00:41;;;;;;;8.20;4.03;;;;;;;-1.57;94.93;96700.03;1024294;28;20772;-56
2021/03/21 00:01:12;;;;;;;6.65;3.25;;;;;;;-1.58;95.49;96695.75;1016488;29;20050;-56
2021/03/21 00:01:43;;;;;;;6.63;3.72;;;;;;;-1.60;95.46;96700.19;1024302;28;20168;-56
2021/03/21 00:02:14;;;;;;;7.25;3.65;;;;;;;-1.59;95.06;96699.28;1032506;28;20027;-56
2021/03/21 00:02:45;;;;;;;8.98;3.70;;;;;;;-1.59;95.35;96696.66;1024257;28;20042;-56
2021/03/21 00:03:16;;;;;;;6.10;3.80;;;;;;;-1.67;94.87;96707.50;1028346;28;20023;-55
2021/03/21 00:03:46;;;;;;;6.70;3.35;;;;;;;-1.63;94.75;96702.97;1024130;29;20111;-56
2021/03/21 00:04:17;;;;;;;7.55;4.20;;;;;;;-1.62;95.27;96697.69;1020492;28;20022;-56
2021/03/21 00:04:48;;;;;;;8.10;4.38;;;;;;;-1.57;95.54;96700.03;1024254;28;20023;-56
2021/03/21 00:05:19;;;;;;;7.80;3.90;;;;;;;-1.58;94.84;96698.38;1024255;29;20374;-55
2021/03/21 00:05:50;;;;;;;8.70;3.90;;;;;;;-1.57;94.53;96700.03;1028431;28;20102;-55
2021/03/21 00:06:20;;;;;;;8.50;3.78;;;;;;;-1.68;94.71;96686.75;1028397;28;20485;-55
2021/03/21 00:06:51;;;;;;;8.20;4.28;;;;;;;-1.60;94.52;96694.97;1032195;28;20028;-57
2021/03/21 00:07:22;;;;;;;8.48;3.85;;;;;;;-1.55;93.96;96695.56;1032347;28;20015;-56
2021/03/21 00:07:56;;;;;;;8.48;4.25;;;;;;;-1.52;93.78;96696.25;1028288;28;20102;-56
2021/03/21 00:08:28;;;;;;;8.23;3.88;;;;;;;-1.55;93.93;96698.19;1024287;28;20022;-56
2021/03/21 00:08:59;;;;;;;7.43;4.13;;;;;;;-1.54;94.15;96697.25;1032206;28;20261;-55
2021/03/21 00:09:30;;;;;;;7.50;4.38;;;;;;;-1.63;94.56;96700.38;1028204;28;20313;-57
2021/03/21 00:10:02;;;;;;;5.63;3.55;;;;;;;-1.62;94.37;96700.28;1028293;28;20105;-56
2021/03/21 00:10:33;;;;;;;8.18;3.90;;;;;;;-1.60;93.97;96705.38;1036434;28;20450;-56
2021/03/21 00:11:05;;;;;;;7.45;4.32;;;;;;;-1.59;94.17;96697.50;1028192;28;20011;-56
2021/03/21 00:11:37;;;;;;;7.90;3.88;;;;;;;-1.56;93.10;96694.75;1028342;28;20546;-56
2021/03/21 00:12:09;;;;;;;7.78;3.65;;;;;;;-1.57;93.81;96703.50;1032329;28;20459;-56
2021/03/21 00:12:39;;;;;;;7.47;3.83;;;;;;;-1.55;93.99;96693.81;1028340;28;20413;-56
2021/03/21 00:13:10;;;;;;;7.93;3.70;;;;;;;-1.55;92.77;96701.63;1020144;29;20035;-57
2021/03/21 00:13:41;;;;;;;7.25;3.80;;;;;;;-1.53;92.71;96696.34;1028211;28;20038;-55
2021/03/21 00:14:11;;;;;;;6.85;3.25;;;;;;;-1.56;92.84;96691.31;1028260;28;20077;-56
2021/03/21 00:14:42;;;;;;;6.50;3.63;;;;;;;-1.55;92.84;96692.97;1024259;29;20473;-55
2021/03/21 00:15:13;;;;;;;6.95;3.58;;;;;;;-1.57;93.04;96690.47;1032171;28;20018;-56
2021/03/21 00:15:44;;;;;;;5.68;3.63;;;;;;;-1.63;93.86;96689.97;1024212;29;20007;-56
2021/03/21 00:16:15;;;;;;;6.20;3.55;;;;;;;-1.62;93.42;96691.63;1032242;28;20007;-56
2021/03/21 00:16:46;;;;;;;9.18;3.58;;;;;;;-1.59;93.72;96688.84;1032323;28;20021;-56
2021/03/21 00:17:16;;;;;;;10.88;3.60;;;;;;;-1.56;93.52;96691.31;1032054;28;20488;-55
2021/03/21 00:17:47;;;;;;;6.18;3.38;;;;;;;-1.56;93.06;96694.75;1024256;28;20498;-55
2021/03/21 00:18:19;;;;;;;6.45;3.95;;;;;;;-1.57;93.06;96687.00;1032321;28;20443;-56
2021/03/21 00:18:50;;;;;;;8.32;4.30;;;;;;;-1.61;94.05;96688.94;1024287;28;20393;-55
2021/03/21 00:19:21;;;;;;;6.68;4.10;;;;;;;-1.59;93.98;96683.66;1024107;28;20019;-56
2021/03/21 00:19:52;;;;;;;7.78;3.83;;;;;;;-1.57;94.30;96687.88;1036334;28;20593;-56
2021/03/21 00:20:27;;;;;;;6.35;3.40;;;;;;;-1.59;93.97;96687.09;1024219;28;20015;-56
2021/03/21 00:20:58;;;;;;;7.80;4.22;;;;;;;-1.56;95.05;96683.50;1020296;28;20069;-55
2021/03/21 00:21:29;;;;;;;6.50;3.78;;;;;;;-1.54;95.51;96681.63;1036167;28;20092;-53
2021/03/21 00:21:59;;;;;;;7.45;3.97;;;;;;;-1.52;96.53;96687.59;1028309;28;20484;-56
2021/03/21 00:22:30;;;;;;;7.13;3.55;;;;;;;-1.51;96.60;96686.69;1024345;28;20022;-55
2021/03/21 00:23:01;;;;;;;9.88;3.92;;;;;;;-1.49;96.24;96691.81;1032240;28;20459;-54
2021/03/21 00:23:32;;;;;;;7.18;4.07;;;;;;;-1.54;95.18;96689.44;1024135;28;20094;-56
2021/03/21 00:24:04;;;;;;;7.30;4.00;;;;;;;-1.60;95.56;96694.97;1028157;28;20640;-56
2021/03/21 00:24:35;;;;;;;6.70;3.65;;;;;;;-1.63;95.92;96693.41;1028249;28;20019;-56
2021/03/21 00:25:09;;;;;;;9.23;4.07;;;;;;;-1.56;95.89;96692.13;1032340;28;20213;-56
2021/03/21 00:25:40;;;;;;;8.80;3.85;;;;;;;-1.55;95.68;96690.38;1031374;28;20527;-54
2021/03/21 00:26:11;;;;;;;6.22;4.07;;;;;;;-1.59;95.99;96694.06;1024219;28;20027;-56
2021/03/21 00:26:42;;;;;;;8.52;4.65;;;;;;;-1.63;96.47;96693.41;1028910;28;20019;-57
2021/03/21 00:27:13;;;;;;;6.53;3.78;;;;;;;-1.64;97.17;96689.09;1024342;29;20047;-55
2021/03/21 00:27:43;;;;;;;7.97;3.95;;;;;;;-1.68;96.58;96698.00;1032257;28;20030;-56
2021/03/21 00:28:18;;;;;;;7.55;3.92;;;;;;;-1.68;96.80;96692.78;1036376;28;20542;-55
2021/03/21 00:28:49;;;;;;;7.63;4.30;;;;;;;-1.64;96.38;96688.25;1024462;29;20055;-55
2021/03/21 00:29:19;;;;;;;7.65;4.18;;;;;;;-1.63;97.44;96695.16;1024483;28;20023;-55
2021/03/21 00:29:50;;;;;;;7.15;3.90;;;;;;;-1.58;97.45;96685.34;1024398;28;20038;-56
2021/03/21 00:30:24;;;;;;;7.68;3.85;;;;;;;-1.59;97.26;96689.69;1032769;28;20022;-57
2021/03/21 00:30:55;;;;;;;7.57;4.10;;;;;;;-1.64;97.55;96685.66;1028367;28;20126;-56
2021/03/21 00:31:26;;;;;;;8.25;4.15;;;;;;;-1.67;97.79;96684.06;1028589;28;20026;-56
2021/03/21 00:31:57;;;;;;;7.65;4.10;;;;;;;-1.67;99.05;96688.41;1032384;28;20018;-56
2021/03/21 00:32:28;;;;;;;7.22;3.88;;;;;;;-1.63;98.33;96684.75;1028484;28;20030;-55
2021/03/21 00:32:59;;;;;;;6.57;3.60;;;;;;;-1.62;97.99;96683.81;1024754;28;20114;-56
2021/03/21 00:33:32;;;;;;;8.68;4.00;;;;;;;-1.62;96.76;96686.41;1028368;28;20095;-54
2021/03/21 00:34:03;;;;;;;7.65;4.20;;;;;;;-1.64;96.29;96677.84;1027998;28;20404;-56
2021/03/21 00:34:34;;;;;;;8.65;4.28;;;;;;;-1.64;96.16;96689.09;1028228;28;20022;-56
2021/03/21 00:35:06;;;;;;;5.88;3.85;;;;;;;-1.66;95.27;96679.69;1036360;28;20021;-56
2021/03/21 00:35:37;;;;;;;5.55;3.47;;;;;;;-1.62;95.22;96681.19;1028240;28;20019;-55
2021/03/21 00:36:10;;;;;;;7.93;3.67;;;;;;;-1.65;95.94;96684.00;1024094;29;20122;-56
2021/03/21 00:36:41;;;;;;;7.22;4.20;;;;;;;-1.71;95.86;96678.19;1028272;28;20023;-56
2021/03/21 00:37:12;;;;;;;7.38;4.00;;;;;;;-1.74;96.48;96678.34;1020233;29;20509;-56
2021/03/21 00:37:42;;;;;;;7.82;3.92;;;;;;;-1.82;96.51;96669.28;1028162;28;20025;-56
2021/03/21 00:38:24;;;;;;;5.45;3.65;;;;;;;-1.68;95.97;96678.94;1032194;28;20015;-56
2021/03/21 00:38:55;;;;;;;8.18;3.80;;;;;;;-1.65;95.26;96682.22;1028187;28;20034;-56
2021/03/21 00:39:26;;;;;;;9.48;4.22;;;;;;;-1.68;95.34;96682.38;1024109;29;20398;-56
2021/03/21 00:39:57;;;;;;;6.88;4.18;;;;;;;-1.68;94.66;96678.94;1028149;28;20117;-55
2021/03/21 00:40:28;;;;;;;7.50;3.75;;;;;;;-1.68;95.87;96674.56;1032264;28;20018;-57
2021/03/21 00:40:59;;;;;;;7.32;4.13;;;;;;;-1.62;95.90;96676.00;1016421;29;20028;-56
2021/03/21 00:41:30;;;;;;;8.70;4.07;;;;;;;-1.68;95.88;96674.56;1028215;28;20023;-57
2021/03/21 00:42:01;;;;;;;6.88;3.75;;;;;;;-1.64;95.99;96672.63;1032068;28;20028;-56
2021/03/21 00:42:33;;;;;;;5.97;3.70;;;;;;;-1.68;95.74;96674.56;1024199;28;20038;-56
2021/03/21 00:43:03;;;;;;;8.57;4.07;;;;;;;-1.64;95.57;96668.25;1024164;28;20271;-57
2021/03/21 00:43:35;;;;;;;6.85;3.88;;;;;;;-1.65;95.76;96668.38;1028034;28;20023;-54
2021/03/21 00:44:05;;;;;;;5.97;3.60;;;;;;;-1.62;94.70;96670.78;1020022;28;20027;-56
2021/03/21 00:44:36;;;;;;;8.18;4.10;;;;;;;-1.63;94.90;96666.53;1032247;28;20018;-56
2021/03/21 00:45:08;;;;;;;9.30;4.63;;;;;;;-1.67;95.03;96672.81;1028088;28;20038;-56
2021/03/21 00:45:39;;;;;;;7.20;4.35;;;;;;;-1.69;95.20;96675.47;1028158;28;20035;-55
2021/03/21 00:46:12;;;;;;;7.53;4.30;;;;;;;-1.72;95.99;96666.09;1040259;28;20025;-57
2021/03/21 00:46:43;;;;;;;9.77;4.80;;;;;;;-1.72;96.03;96666.09;1036246;28;20022;-56
2021/03/21 00:47:14;;;;;;;8.20;4.18;;;;;;;-1.74;95.94;96659.28;1028184;28;20038;-56
2021/03/21 00:47:44;;;;;;;9.57;4.10;;;;;;;-1.63;95.50;96661.31;1032177;28;20025;-55
2021/03/21 00:48:19;;;;;;;8.25;3.80;;;;;;;-1.64;95.39;96667.44;1024037;28;20033;-56
2021/03/21 00:48:49;;;;;;;8.68;4.38;;;;;;;-1.61;95.12;96670.72;1028145;28;20070;-56
2021/03/21 00:49:20;;;;;;;7.88;4.00;;;;;;;-1.65;96.09;96668.38;1028198;28;20464;-55
2021/03/21 00:49:51;;;;;;;8.48;4.35;;;;;;;-1.91;96.33;96626.34;1028156;28;20019;-55
2021/03/21 00:50:34;;;;;;;9.18;4.30;;;;;;;-1.59;96.03;96662.81;1031995;28;20025;-56
2021/03/21 00:51:05;;;;;;;7.03;4.05;;;;;;;-1.61;95.85;96668.09;1027868;28;20015;-56
2021/03/21 00:51:35;;;;;;;7.43;4.43;;;;;;;-1.62;95.66;96660.38;1024167;29;20023;-56
2021/03/21 00:52:06;;;;;;;6.47;3.53;;;;;;;-1.62;95.08;96660.38;1028207;28;20031;-57
2021/03/21 00:52:37;;;;;;;7.82;3.95;;;;;;;-1.59;95.38;96666.25;1028183;28;20015;-57
2021/03/21 00:53:08;;;;;;;6.60;3.75;;;;;;;-1.60;95.40;96663.72;1027891;28;20041;-56
2021/03/21 00:53:38;;;;;;;6.90;3.92;;;;;;;-1.62;94.77;96665.56;1031435;28;20033;-54
2021/03/21 00:54:09;;;;;;;7.40;3.75;;;;;;;-1.64;95.01;96668.25;1032180;28;20437;-56
2021/03/21 00:54:41;;;;;;;6.78;4.20;;;;;;;-1.69;96.31;96664.25;1028115;28;20138;-56
2021/03/21 00:55:12;;;;;;;9.52;4.47;;;;;;;-1.66;96.64;96677.09;1031980;28;20022;-56
2021/03/21 00:55:43;;;;;;;9.00;4.57;;;;;;;-1.61;97.10;96667.28;1028197;28;20022;-56
2021/03/21 00:56:34;;;;;;;7.25;4.20;;;;;;;-1.66;97.74;96669.28;1024160;28;20048;-56
2021/03/21 00:57:05;;;;;;;6.18;3.85;;;;;;;-1.65;98.14;96661.41;1028053;28;20042;-56
2021/03/21 00:57:36;;;;;;;6.82;4.15;;;;;;;-1.66;97.51;96664.06;1028122;28;20082;-56
2021/03/21 00:58:06;;;;;;;7.47;3.90;;;;;;;-1.69;96.95;96666.84;1024224;28;20102;-55
2021/03/21 00:58:37;;;;;;;8.05;3.92;;;;;;;-1.64;96.75;96670.88;1036175;28;20014;-56
2021/03/21 00:59:09;;;;;;;7.80;4.30;;;;;;;-1.67;96.11;96663.25;1032090;28;20026;-56
2021/03/21 00:59:41;;;;;;;9.07;4.57;;;;;;;-1.69;96.58;96662.47;1028136;28;20023;-56
2021/03/21 01:00:18;;;;;;;8.77;4.20;;;;;;;-1.68;95.92;96660.72;1028233;28;20400;-56
2021/03/21 01:00:52;;;;;;;8.02;4.05;;;;;;;-1.67;95.20;96663.25;1029438;28;20504;-56
2021/03/21 01:01:22;;;;;;;6.40;3.90;;;;;;;-1.67;95.57;96664.97;1025562;28;20016;-56
2021/03/21 01:01:53;;;;;;;8.73;4.53;;;;;;;-1.68;95.49;96664.16;1024180;28;20286;-56
2021/03/21 01:02:24;;;;;;;10.25;4.65;;;;;;;-1.69;95.72;96654.66;1028100;28;20476;-55
2021/03/21 01:02:56;;;;;;;6.68;4.22;;;;;;;-1.63;96.82;96661.31;1036265;28;20021;-55
2021/03/21 01:03:27;;;;;;;10.70;4.18;;;;;;;-1.63;96.73;96663.91;1031877;28;20031;-54
2021/03/21 01:03:58;;;;;;;7.55;4.57;;;;;;;-1.61;97.07;96667.28;1020101;28;20016;-56
2021/03/21 01:04:29;;;;;;;7.35;4.30;;;;;;;-1.63;96.92;96658.72;1024097;29;20043;-54
2021/03/21 01:05:00;;;;;;;6.53;4.43;;;;;;;-1.71;97.02;96654.75;1028174;28;20073;-56
2021/03/21 01:05:34;;;;;;;9.18;4.47;;;;;;;-1.67;96.69;96657.19;1031928;28;20010;-56
2021/03/21 01:06:06;;;;;;;7.65;3.78;;;;;;;-1.66;97.17;96662.31;1032150;28;20023;-56
2021/03/21 01:06:37;;;;;;;10.07;4.82;;;;;;;-1.63;96.21;96656.09;1028076;28;20504;-56
2021/03/21 01:07:08;;;;;;;8.90;4.60;;;;;;;-1.69;95.74;96656.41;1028131;28;20020;-56
2021/03/21 01:07:39;;;;;;;7.80;4.28;;;;;;;-1.67;96.57;96654.56;1028010;28;20089;-56
2021/03/21 01:08:27;;;;;;;6.95;4.20;;;;;;;-1.73;96.96;96656.59;1028057;28;20022;-55
2021/03/21 01:09:04;;;;;;;12.02;5.82;;;;;;;-1.68;96.99;96658.13;1036141;28;20017;-52
2021/03/21 01:09:35;;;;;;;8.02;4.10;;;;;;;-1.73;96.65;96653.97;1032106;28;20069;-56
2021/03/21 01:10:07;;;;;;;6.18;4.00;;;;;;;-1.74;97.53;96654.09;1036142;28;20370;-56
2021/03/21 01:10:38;;;;;;;7.32;3.90;;;;;;;-1.72;97.81;96647.03;1026921;28;20030;-56
2021/03/21 01:11:13;;;;;;;7.43;4.47;;;;;;;-1.74;96.92;96652.31;1024162;28;20126;-54
2021/03/21 01:11:44;;;;;;;7.43;4.20;;;;;;;-1.69;96.95;96651.22;1032005;28;20018;-56
2021/03/21 01:12:15;;;;;;;8.65;4.30;;;;;;;-1.88;97.09;96628.81;1028024;28;20018;-56
2021/03/21 01:12:46;;;;;;;7.30;3.95;;;;;;;-1.73;96.48;96643.56;1036063;28;20427;-56
2021/03/21 01:13:16;;;;;;;6.40;3.88;;;;;;;-1.68;95.97;96643.31;1028112;28;20050;-55
2021/03/21 01:13:47;;;;;;;6.03;3.78;;;;;;;-1.75;96.34;96644.59;1019892;29;20067;-56
2021/03/21 01:14:18;;;;;;;8.00;5.03;;;;;;;-1.77;97.62;96634.25;1032160;28;20026;-55
2021/03/21 01:14:49;;;;;;;9.07;4.07;;;;;;;-1.71;97.87;96644.34;1031994;28;20018;-56
2021/03/21 01:15:20;;;;;;;7.07;4.38;;;;;;;-1.76;96.99;96633.34;1024026;28;20263;-56
2021/03/21 01:15:51;;;;;;;7.95;4.57;;;;;;;-1.81;96.70;96626.69;1023936;28;20102;-55
2021/03/21 01:16:25;;;;;;;7.60;4.20;;;;;;;-1.76;97.31;96643.75;1028060;28;20250;-57
2021/03/21 01:16:56;;;;;;;7.40;4.72;;;;;;;-1.72;97.46;96639.22;1028085;28;20030;-56
2021/03/21 01:17:27;;;;;;;7.35;4.78;;;;;;;-1.66;96.67;96643.25;1028083;28;20254;-56
2021/03/21 01:17:58;;;;;;;7.78;4.53;;;;;;;-1.67;96.62;96641.56;1023822;29;20023;-56
2021/03/21 01:18:30;;;;;;;6.60;3.97;;;;;;;-1.64;96.80;96642.22;1028082;28;20017;-56
2021/03/21 01:19:01;;;;;;;5.30;3.50;;;;;;;-1.66;96.28;96638.88;1020581;29;20449;-57
2021/03/21 01:19:32;;;;;;;7.45;4.00;;;;;;;-1.73;96.15;96635.75;1028039;28;20022;-56
2021/03/21 01:20:05;;;;;;;8.18;4.15;;;;;;;-1.69;96.49;96636.44;1031932;28;20254;-56
2021/03/21 01:20:35;;;;;;;7.95;4.35;;;;;;;-1.80;96.56;96636.19;1032136;28;20018;-56
2021/03/21 01:21:10;;;;;;;7.78;4.13;;;;;;;-1.72;96.86;96640.06;1036028;28;20245;-56
2021/03/21 01:21:44;;;;;;;9.63;4.40;;;;;;;-1.68;97.07;96640.72;1028176;28;20074;-55
2021/03/21 01:22:15;;;;;;;8.48;4.63;;;;;;;-1.66;96.68;96643.25;1023895;28;20019;-56
2021/03/21 01:22:47;;;;;;;7.70;4.50;;;;;;;-1.67;96.63;96636.34;1036159;28;20603;-57
2021/03/21 01:23:18;;;;;;;9.02;4.55;;;;;;;-1.65;96.87;96637.13;1028026;28;20022;-56
2021/03/21 01:23:49;;;;;;;10.13;4.55;;;;;;;-1.65;96.62;96634.53;1023897;29;20023;-57
2021/03/21 01:24:21;;;;;;;7.40;4.38;;;;;;;-1.62;96.38;96634.34;1027944;28;20027;-55
2021/03/21 01:24:51;;;;;;;7.28;4.32;;;;;;;-1.67;96.96;96636.34;1032039;28;20022;-56
2021/03/21 01:25:25;;;;;;;6.40;4.03;;;;;;;-1.64;97.64;96630.97;1028079;28;20182;-56
2021/03/21 01:25:56;;;;;;;7.32;4.50;;;;;;;-1.65;97.94;96634.53;1028789;28;20038;-56
2021/03/21 01:26:27;;;;;;;7.30;4.40;;;;;;;-1.66;98.28;96631.06;1027922;28;20373;-56
2021/03/21 01:26:58;;;;;;;7.57;4.75;;;;;;;-1.66;98.24;96628.47;1031995;28;20023;-57
2021/03/21 01:27:28;;;;;;;8.15;4.38;;;;;;;-1.64;98.33;96625.78;1023990;29;20120;-56
2021/03/21 01:27:59;;;;;;;6.63;3.65;;;;;;;-1.64;97.85;96630.97;1024035;29;20024;-57
2021/03/21 01:28:33;;;;;;;8.00;4.18;;;;;;;-1.64;97.42;96626.59;1031918;28;20022;-56
2021/03/21 01:29:04;;;;;;;7.43;4.30;;;;;;;-1.69;96.87;96628.63;1016003;28;20020;-55
2021/03/21 01:29:34;;;;;;;5.45;3.40;;;;;;;-1.66;96.93;96627.63;1031936;28;20759;-56
2021/03/21 01:30:07;;;;;;;7.95;3.95;;;;;;;-1.63;96.39;96633.50;1023988;29;20494;-55
2021/03/21 01:30:37;;;;;;;6.70;4.28;;;;;;;-1.66;96.97;96638.88;1019890;29;20027;-56
2021/03/21 01:31:10;;;;;;;6.85;4.18;;;;;;;-1.73;96.93;96617.53;1024019;29;20469;-55
2021/03/21 01:31:41;;;;;;;7.22;4.18;;;;;;;-1.58;95.96;96630.66;1028025;28;20022;-55
2021/03/21 01:32:12;;;;;;;7.00;4.25;;;;;;;-1.62;96.20;96630.00;1024029;29;20768;-56
2021/03/21 01:32:43;;;;;;;6.22;3.63;;;;;;;-1.64;96.62;96624.00;1023798;29;20066;-56
2021/03/21 01:33:14;;;;;;;7.60;4.30;;;;;;;-1.67;96.80;96633.75;1027901;28;20452;-55
2021/03/21 01:33:45;;;;;;;8.35;4.28;;;;;;;-1.68;96.63;96622.50;1027819;28;20027;-55
2021/03/21 01:34:15;;;;;;;7.50;4.18;;;;;;;-1.68;97.05;96626.88;1019928;28;20030;-56
2021/03/21 01:34:46;;;;;;;7.30;4.47;;;;;;;-1.80;95.87;96613.59;1035878;28;20093;-56
2021/03/21 01:35:17;;;;;;;5.93;3.78;;;;;;;-1.74;96.35;96618.47;1028080;28;20185;-56
2021/03/21 01:35:48;;;;;;;8.40;4.43;;;;;;;-1.75;97.06;96622.00;1028027;28;20393;-57
2021/03/21 01:36:25;;;;;;;9.65;5.40;;;;;;;-1.73;98.76;96619.31;1032074;28;20121;-56
2021/03/21 01:36:56;;;;;;;7.72;4.13;;;;;;;-1.67;98.04;96620.72;1019995;28;20804;-56
2021/03/21 01:37:26;;;;;;;6.72;3.85;;;;;;;-1.66;96.43;96617.22;1027954;28;20031;-56
2021/03/21 01:37:57;;;;;;;6.65;4.03;;;;;;;-1.65;95.79;96621.50;1028058;28;20085;-56
2021/03/21 01:38:28;;;;;;;7.40;4.38;;;;;;;-1.67;96.22;96621.59;1016214;29;20016;-57
2021/03/21 01:39:00;;;;;;;8.88;4.22;;;;;;;-1.68;95.96;96619.91;1027947;28;20165;-56
2021/03/21 01:39:31;;;;;;;10.38;4.32;;;;;;;-1.67;96.12;96615.53;1024093;28;20062;-56
2021/03/21 01:40:04;;;;;;;9.05;4.45;;;;;;;-1.65;97.47;96613.69;1023991;28;20023;-56
2021/03/21 01:40:36;;;;;;;9.10;4.55;;;;;;;-1.67;96.55;96613.78;1027868;28;20026;-56
2021/03/21 01:41:12;;;;;;;7.85;4.22;;;;;;;-1.69;95.68;96617.38;1028026;28;20023;-57
2021/03/21 01:41:43;;;;;;;8.65;3.90;;;;;;;-1.68;95.92;96617.28;1028016;28;20029;-56
2021/03/21 01:42:15;;;;;;;6.85;4.15;;;;;;;-1.69;95.38;96619.97;1024044;29;20388;-56
2021/03/21 01:42:47;;;;;;;7.57;4.30;;;;;;;-1.68;95.70;96611.25;1036033;28;20036;-57
2021/03/21 01:43:21;;;;;;;6.35;3.95;;;;;;;-1.64;95.80;96610.16;1027912;28;20026;-56
2021/03/21 01:43:52;;;;;;;7.15;4.13;;;;;;;-1.61;95.62;96612.59;1023894;29;20023;-56
2021/03/21 01:44:22;;;;;;;8.40;4.25;;;;;;;-1.62;96.00;96609.16;1027926;28;20031;-57
2021/03/21 01:44:54;;;;;;;7.38;4.00;;;;;;;-1.62;95.02;96610.91;1027820;28;20027;-56
2021/03/21 01:45:28;;;;;;;6.78;4.28;;;;;;;-1.56;94.83;96607.97;1031834;28;20010;-56
2021/03/21 01:45:58;;;;;;;8.40;4.70;;;;;;;-1.62;95.57;96609.16;1027958;28;20046;-56
2021/03/21 01:46:45;;;;;;;8.07;4.57;;;;;;;-1.58;94.64;96605.44;1027888;28;20023;-54
2021/03/21 01:47:28;;;;;;;7.25;4.70;;;;;;;-1.63;94.83;96609.25;1023858;28;20011;-56
2021/03/21 01:48:00;;;;;;;7.15;3.90;;;;;;;-1.64;95.41;96607.53;1023851;28;20031;-56
2021/03/21 01:48:33;;;;;;;10.20;4.32;;;;;;;-1.61;96.14;96610.00;1027901;28;20010;-55
2021/03/21 01:49:12;;;;;;;7.60;4.15;;;;;;;-1.67;96.46;96608.56;1034187;28;20042;-55
2021/03/21 01:49:44;;;;;;;;;;;;;;;-1.62;96.88;96601.34;1036494;28;20022;-56
2021/03/21 01:50:23;;;;;;;7.40;3.75;;;;;;;-1.54;96.33;96600.91;1037661;28;20505;-57
2021/03/21 01:50:56;;;;;;;6.88;3.58;;;;;;;-1.62;95.33;96603.94;1027967;28;20436;-56
2021/03/21 01:51:28;;;;;;;7.32;4.25;;;;;;;-1.65;95.12;96614.53;1019822;29;20046;-55
2021/03/21 01:51:59;;;;;;;8.05;4.50;;;;;;;-1.64;95.14;96600.56;1019959;29;20036;-56
2021/03/21 01:52:35;;;;;;;6.18;4.20;;;;;;;-1.59;95.10;96602.94;1027927;28;20420;-56
2021/03/21 01:53:06;;;;;;;9.10;4.22;;;;;;;-1.58;94.53;96605.44;1035920;28;20040;-57
2021/03/21 01:53:39;;;;;;;7.78;4.43;;;;;;;-1.58;94.45;96608.06;1023700;28;20015;-53
2021/03/21 01:54:11;;;;;;;9.10;4.80;;;;;;;-1.62;95.32;96597.88;1023832;29;20339;-56
2021/03/21 01:54:42;;;;;;;7.63;4.20;;;;;;;-1.65;95.10;96598.06;1023893;28;20271;-55
2021/03/21 01:55:13;;;;;;;7.72;4.20;;;;;;;-1.68;95.62;96604.28;1027818;28;20050;-56
2021/03/21 01:55:43;;;;;;;7.35;4.20;;;;;;;-1.75;95.62;96593.34;1015962;29;20510;-57
2021/03/21 01:56:14;;;;;;;7.30;4.30;;;;;;;-1.69;95.46;96605.19;1027946;28;20022;-57
2021/03/21 01:56:45;;;;;;;7.78;4.10;;;;;;;-1.65;95.01;96600.69;1023961;28;20054;-56
2021/03/21 01:57:16;;;;;;;8.52;4.82;;;;;;;-1.67;95.34;96599.91;1027815;28;20023;-56
2021/03/21 01:57:46;;;;;;;9.27;4.35;;;;;;;-1.69;94.33;96604.34;1023982;28;20028;-56
2021/03/21 01:58:18;;;;;;;7.53;4.55;;;;;;;-1.63;93.90;96596.22;1027790;28;20489;-56
2021/03/21 01:59:00;;;;;;;6.72;4.35;;;;;;;-1.64;93.99;96589.31;1031971;28;20025;-55
2021/03/21 01:59:31;;;;;;;9.63;3.67;;;;;;;-1.69;93.66;96596.53;1020004;29;20020;-56
2021/03/21 02:00:05;;;;;;;8.07;4.25;;;;;;;-1.65;93.43;96595.47;1027965;28;20125;-57
2021/03/21 02:00:36;;;;;;;6.53;3.85;;;;;;;-1.66;94.84;96597.22;1023934;29;20058;-55
2021/03/21 02:01:19;;;;;;;8.63;4.63;;;;;;;-1.61;95.08;96592.59;1019936;29;20020;-55
2021/03/21 02:01:51;;;;;;;6.88;4.03;;;;;;;-1.57;94.42;96593.25;1030036;28;20022;-56
2021/03/21 02:02:22;;;;;;;6.40;3.78;;;;;;;-1.59;93.99;96587.31;1030113;28;20051;-56
2021/03/21 02:02:53;;;;;;;7.15;4.22;;;;;;;-1.58;93.53;96597.63;1029911;28;20706;-55
2021/03/21 02:03:24;;;;;;;7.10;4.03;;;;;;;-1.65;93.65;96590.25;1023925;28;20054;-54
2021/03/21 02:03:55;;;;;;;7.35;4.40;;;;;;;-1.68;93.52;96593.03;1031569;28;20089;-56
2021/03/21 02:04:26;;;;;;;6.57;4.13;;;;;;;-1.65;92.54;96588.50;1023997;28;20027;-56
2021/03/21 02:04:56;;;;;;;7.75;4.57;;;;;;;-1.66;92.86;96591.19;1027492;28;20052;-55
2021/03/21 02:05:27;;;;;;;9.75;4.30;;;;;;;-1.73;93.24;96583.69;1031491;28;20023;-56
2021/03/21 02:06:12;;;;;;;7.97;4.53;;;;;;;-1.71;93.36;96587.06;1019837;29;20103;-56
2021/03/21 02:06:54;;;;;;;7.38;4.30;;;;;;;-1.72;93.38;96579.34;1027834;28;20423;-56
2021/03/21 02:07:40;;;;;;;7.63;4.22;;;;;;;-1.67;93.59;96585.13;1027994;28;20377;-56
2021/03/21 02:08:24;;;;;;;7.65;4.43;;;;;;;-1.71;93.80;96581.88;1027837;28;20019;-57
2021/03/21 02:09:01;;;;;;;7.13;3.88;;;;;;;-1.73;93.62;96583.69;1027959;28;20169;-56
2021/03/21 02:09:51;;;;;;;7.95;4.68;;;;;;;-1.71;93.41;96584.47;1028012;28;20372;-56
2021/03/21 02:10:36;;;;;;;5.60;3.50;;;;;;;-1.65;93.44;96579.84;1031976;28;20249;-56
2021/03/21 02:11:36;;;;;;;7.15;4.18;;;;;;;-1.71;93.74;96587.06;1027830;28;20046;-54
2021/03/21 02:12:22;;;;;;;7.65;3.85;;;;;;;-1.69;94.25;96583.53;1027939;28;20023;-57
2021/03/21 02:13:02;;;;;;;7.57;4.40;;;;;;;-1.68;94.88;96586.03;1033337;28;20751;-56
2021/03/21 02:13:38;;;;;;;6.63;3.95;;;;;;;-1.65;95.16;96590.25;1025763;28;20252;-55
2021/03/21 02:14:16;;;;;;;7.07;3.70;;;;;;;-1.74;94.77;96594.22;1027754;28;20251;-55
2021/03/21 02:15:17;;;;;;;9.38;3.95;;;;;;;-1.71;95.33;96587.06;1023916;29;20070;-56
2021/03/21 02:15:50;;;;;;;7.18;4.10;;;;;;;-1.69;94.36;96583.53;1019981;29;20099;-57
2021/03/21 02:16:26;;;;;;;9.48;4.07;;;;;;;-1.73;94.28;96590.66;1023810;28;20747;-56
2021/03/21 02:17:00;;;;;;;8.05;4.57;;;;;;;-1.72;94.87;96582.78;1027979;28;20300;-57
2021/03/21 02:17:44;;;;;;;9.15;3.95;;;;;;;-1.77;94.26;96584.78;1023879;28;20402;-55
2021/03/21 02:18:25;;;;;;;7.32;4.13;;;;;;;-1.71;92.61;96581.88;1027648;28;20285;-56
2021/03/21 02:19:02;;;;;;;8.50;4.55;;;;;;;-1.72;93.34;96580.16;1023849;28;20425;-56
2021/03/21 02:19:56;;;;;;;8.32;4.45;;;;;;;-1.71;93.29;96583.59;1027914;28;20255;-56
2021/03/21 02:20:40;;;;;;;7.43;4.35;;;;;;;-1.68;93.76;96574.81;1027863;28;20720;-57
2021/03/21 02:21:28;;;;;;;6.20;3.80;;;;;;;-1.61;93.93;96569.16;1027849;28;20011;-57
2021/03/21 02:22:02;;;;;;;10.48;4.53;;;;;;;-1.63;93.41;96580.59;1027803;28;20286;-57
2021/03/21 02:22:35;;;;;;;6.57;4.18;;;;;;;-1.61;92.85;96573.53;1019709;28;20276;-56
2021/03/21 02:23:16;;;;;;;8.32;4.50;;;;;;;-1.67;93.15;96574.72;1023809;29;20768;-55
2021/03/21 02:24:07;;;;;;;7.90;4.57;;;;;;;-1.59;93.12;96571.69;1025963;28;20243;-56
2021/03/21 02:25:08;;;;;;;8.82;4.35;;;;;;;-1.67;94.08;96576.47;1031531;28;20021;-56
2021/03/21 02:25:54;;;;;;;7.05;4.18;;;;;;;-1.65;94.23;96567.66;1022535;28;20270;-56
2021/03/21 02:26:42;;;;;;;7.68;4.50;;;;;;;-1.64;94.65;96573.69;1032187;28;20740;-56
2021/03/21 02:27:32;;;;;;;7.70;4.60;;;;;;;-1.62;94.19;96570.09;1031021;28;20052;-56
2021/03/21 02:28:24;;;;;;;8.25;4.20;;;;;;;-1.69;94.48;96565.31;1027734;28;20019;-56
2021/03/21 02:29:14;;;;;;;8.05;4.22;;;;;;;-1.66;94.94;96568.56;1030724;28;20025;-56
2021/03/21 02:29:56;;;;;;;6.85;4.03;;;;;;;-1.63;94.87;96567.56;1027698;28;20308;-54
2021/03/21 02:30:29;;;;;;;9.30;4.00;;;;;;;-1.65;95.10;96566.81;1023997;28;20046;-56
2021/03/21 02:31:04;;;;;;;8.48;4.45;;;;;;;-1.64;93.94;96568.50;1027698;28;20046;-57
2021/03/21 02:31:39;;;;;;;7.97;4.38;;;;;;;-1.60;93.88;96562.19;1026397;28;20129;-56
2021/03/21 02:32:23;;;;;;;8.00;4.65;;;;;;;-1.62;93.29;96562.28;1026161;28;20110;-56
2021/03/21 02:32:58;;;;;;;9.80;4.35;;;;;;;-1.61;93.53;96556.13;1026697;28;20261;-56
2021/03/21 02:33:35;;;;;;;7.53;4.32;;;;;;;-1.65;93.37;96559.84;1038846;28;20028;-53
2021/03/21 02:34:12;;;;;;;5.95;3.78;;;;;;;-1.63;93.95;96558.00;1035862;28;20033;-56
2021/03/21 02:34:52;;;;;;;7.28;4.35;;;;;;;-1.65;95.37;96559.84;1027828;28;20465;-56
2021/03/21 02:35:28;;;;;;;6.72;3.97;;;;;;;-1.66;94.89;96554.72;1019815;29;20256;-56
2021/03/21 02:36:06;;;;;;;7.20;4.05;;;;;;;-1.60;93.86;96552.63;1027943;28;20015;-56
2021/03/21 02:36:41;;;;;;;6.57;4.18;;;;;;;-1.62;93.59;96556.22;1031883;28;20498;-56
2021/03/21 02:37:18;;;;;;;7.22;4.03;;;;;;;-1.59;93.11;96558.66;1027591;28;20090;-56
2021/03/21 02:37:55;;;;;;;8.68;3.90;;;;;;;-1.58;92.82;96552.53;1027807;28;20038;-53
2021/03/21 02:38:38;;;;;;;8.63;4.15;;;;;;;-1.60;93.23;96556.97;1027998;28;20029;-56
2021/03/21 02:39:14;;;;;;;7.60;4.25;;;;;;;-1.63;93.57;96555.38;1035797;28;20485;-56